sensor_id;sensor_type;location;lat;lon;timestamp;temperature;humidity
10384;DHT22;5238;43.508;4.980;2022-12-07T00:00:51;5.10;91.30
10384;DHT22;5238;43.508;4.980;2022-12-07T00:03:18;5.10;91.30
10384;DHT22;5238;43.508;4.980;2022-12-07T00:05:45;5.10;91.30
10384;DHT22;5238;43.508;4.980;2022-12-07T00:08:12;5.10;91.30
10384;DHT22;5238;43.508;4.980;2022-12-07T00:10:42;5.10;91.30
10384;DHT22;5238;43.508;4.980;2022-12-07T00:13:09;5.10;91.30
10384;DHT22;5238;43.508;4.980;2022-12-07T00:15:37;5.10;91.30
10384;DHT22;5238;43.508;4.980;2022-12-07T00:18:04;5.00;91.30
10384;DHT22;5238;43.508;4.980;2022-12-07T00:20:31;5.00;91.30
10384;DHT22;5238;43.508;4.980;2022-12-07T00:22:58;5.00;91.30
10384;DHT22;5238;43.508;4.980;2022-12-07T00:25:26;5.00;91.30
10384;DHT22;5238;43.508;4.980;2022-12-07T00:27:53;5.00;91.30
10384;DHT22;5238;43.508;4.980;2022-12-07T00:30:22;5.00;91.30
10384;DHT22;5238;43.508;4.980;2022-12-07T00:32:50;4.90;91.30
10384;DHT22;5238;43.508;4.980;2022-12-07T00:35:17;4.90;91.30
10384;DHT22;5238;43.508;4.980;2022-12-07T00:37:44;4.90;91.30
10384;DHT22;5238;43.508;4.980;2022-12-07T00:40:12;4.80;91.30
10384;DHT22;5238;43.508;4.980;2022-12-07T00:42:42;4.80;91.30
10384;DHT22;5238;43.508;4.980;2022-12-07T00:45:09;4.80;91.30
10384;DHT22;5238;43.508;4.980;2022-12-07T00:47:36;4.80;91.30
10384;DHT22;5238;43.508;4.980;2022-12-07T00:50:05;4.70;91.30
10384;DHT22;5238;43.508;4.980;2022-12-07T00:52:33;4.70;91.30
10384;DHT22;5238;43.508;4.980;2022-12-07T00:55:00;4.70;91.30
10384;DHT22;5238;43.508;4.980;2022-12-07T00:57:27;4.70;91.30
10384;DHT22;5238;43.508;4.980;2022-12-07T00:59:54;4.70;91.30
10384;DHT22;5238;43.508;4.980;2022-12-07T01:02:23;4.70;91.30
10384;DHT22;5238;43.508;4.980;2022-12-07T01:04:50;4.70;91.30
10384;DHT22;5238;43.508;4.980;2022-12-07T01:07:18;4.70;91.30
10384;DHT22;5238;43.508;4.980;2022-12-07T01:09:45;4.70;91.30
10384;DHT22;5238;43.508;4.980;2022-12-07T01:12:13;4.70;91.30
10384;DHT22;5238;43.508;4.980;2022-12-07T01:14:41;4.70;91.30
10384;DHT22;5238;43.508;4.980;2022-12-07T01:17:08;4.70;91.30
10384;DHT22;5238;43.508;4.980;2022-12-07T01:19:35;4.70;91.30
10384;DHT22;5238;43.508;4.980;2022-12-07T01:22:02;4.70;91.30
10384;DHT22;5238;43.508;4.980;2022-12-07T01:24:31;4.70;91.30
10384;DHT22;5238;43.508;4.980;2022-12-07T01:26:58;4.70;91.30
10384;DHT22;5238;43.508;4.980;2022-12-07T01:29:25;4.70;91.30
10384;DHT22;5238;43.508;4.980;2022-12-07T01:31:52;4.70;91.30
10384;DHT22;5238;43.508;4.980;2022-12-07T01:34:18;4.70;91.30
10384;DHT22;5238;43.508;4.980;2022-12-07T01:36:46;4.70;91.30
10384;DHT22;5238;43.508;4.980;2022-12-07T01:39:13;4.70;91.30
10384;DHT22;5238;43.508;4.980;2022-12-07T01:41:42;4.70;91.30
10384;DHT22;5238;43.508;4.980;2022-12-07T01:44:18;4.70;91.30
10384;DHT22;5238;43.508;4.980;2022-12-07T01:46:46;4.70;91.30
10384;DHT22;5238;43.508;4.980;2022-12-07T01:49:17;4.70;91.30
10384;DHT22;5238;43.508;4.980;2022-12-07T01:51:46;4.70;91.30
10384;DHT22;5238;43.508;4.980;2022-12-07T01:54:16;4.70;91.30
10384;DHT22;5238;43.508;4.980;2022-12-07T01:56:50;4.80;91.30
10384;DHT22;5238;43.508;4.980;2022-12-07T01:59:18;4.80;91.30
10384;DHT22;5238;43.508;4.980;2022-12-07T02:01:47;4.80;91.30
10384;DHT22;5238;43.508;4.980;2022-12-07T02:04:14;4.80;91.30
10384;DHT22;5238;43.508;4.980;2022-12-07T02:06:43;4.80;91.30
10384;DHT22;5238;43.508;4.980;2022-12-07T02:09:11;4.80;91.30
10384;DHT22;5238;43.508;4.980;2022-12-07T02:11:39;4.80;91.30
10384;DHT22;5238;43.508;4.980;2022-12-07T02:14:09;4.80;91.30
10384;DHT22;5238;43.508;4.980;2022-12-07T02:16:44;4.80;91.30
10384;DHT22;5238;43.508;4.980;2022-12-07T02:19:53;4.80;91.30
10384;DHT22;5238;43.508;4.980;2022-12-07T02:22:40;4.80;91.30
10384;DHT22;5238;43.508;4.980;2022-12-07T02:25:19;4.70;91.30
10384;DHT22;5238;43.508;4.980;2022-12-07T02:27:52;4.70;91.30
10384;DHT22;5238;43.508;4.980;2022-12-07T02:30:30;4.70;91.30
10384;DHT22;5238;43.508;4.980;2022-12-07T02:32:59;4.70;91.30
10384;DHT22;5238;43.508;4.980;2022-12-07T02:35:32;4.70;91.30
10384;DHT22;5238;43.508;4.980;2022-12-07T02:38:18;4.60;91.30
10384;DHT22;5238;43.508;4.980;2022-12-07T02:40:51;4.60;91.30
10384;DHT22;5238;43.508;4.980;2022-12-07T02:43:23;4.60;91.30
10384;DHT22;5238;43.508;4.980;2022-12-07T02:45:57;4.60;91.30
10384;DHT22;5238;43.508;4.980;2022-12-07T02:48:26;4.60;91.30
10384;DHT22;5238;43.508;4.980;2022-12-07T02:50:54;4.60;91.30
10384;DHT22;5238;43.508;4.980;2022-12-07T02:53:32;4.60;91.30
10384;DHT22;5238;43.508;4.980;2022-12-07T02:56:06;4.60;91.30
10384;DHT22;5238;43.508;4.980;2022-12-07T02:58:45;4.50;91.30
10384;DHT22;5238;43.508;4.980;2022-12-07T03:01:26;4.50;91.30
10384;DHT22;5238;43.508;4.980;2022-12-07T03:04:18;4.50;91.30
10384;DHT22;5238;43.508;4.980;2022-12-07T03:06:51;4.50;91.30
10384;DHT22;5238;43.508;4.980;2022-12-07T03:09:22;4.50;91.30
10384;DHT22;5238;43.508;4.980;2022-12-07T03:12:01;4.50;91.30
10384;DHT22;5238;43.508;4.980;2022-12-07T03:14:32;4.50;91.30
10384;DHT22;5238;43.508;4.980;2022-12-07T03:17:07;4.50;91.30
10384;DHT22;5238;43.508;4.980;2022-12-07T03:19:35;4.50;91.30
10384;DHT22;5238;43.508;4.980;2022-12-07T03:22:05;4.50;91.30
10384;DHT22;5238;43.508;4.980;2022-12-07T03:24:36;4.50;91.30
10384;DHT22;5238;43.508;4.980;2022-12-07T03:27:08;4.50;91.30
10384;DHT22;5238;43.508;4.980;2022-12-07T03:29:38;4.50;91.30
10384;DHT22;5238;43.508;4.980;2022-12-07T03:32:14;4.50;91.30
10384;DHT22;5238;43.508;4.980;2022-12-07T03:34:47;4.50;91.30
10384;DHT22;5238;43.508;4.980;2022-12-07T03:37:22;4.50;91.30
10384;DHT22;5238;43.508;4.980;2022-12-07T03:39:56;4.40;91.30
10384;DHT22;5238;43.508;4.980;2022-12-07T03:42:24;4.40;91.30
10384;DHT22;5238;43.508;4.980;2022-12-07T03:45:09;4.40;91.30
10384;DHT22;5238;43.508;4.980;2022-12-07T03:47:45;4.40;91.30
10384;DHT22;5238;43.508;4.980;2022-12-07T03:50:15;4.40;91.30
10384;DHT22;5238;43.508;4.980;2022-12-07T03:52:53;4.30;91.30
10384;DHT22;5238;43.508;4.980;2022-12-07T03:55:26;4.30;91.30
10384;DHT22;5238;43.508;4.980;2022-12-07T03:57:56;4.30;91.30
10384;DHT22;5238;43.508;4.980;2022-12-07T04:00:25;4.30;91.30
10384;DHT22;5238;43.508;4.980;2022-12-07T04:02:54;4.30;91.30
10384;DHT22;5238;43.508;4.980;2022-12-07T04:05:22;4.30;91.30
10384;DHT22;5238;43.508;4.980;2022-12-07T04:07:49;4.30;91.30
10384;DHT22;5238;43.508;4.980;2022-12-07T04:10:16;4.30;91.30
10384;DHT22;5238;43.508;4.980;2022-12-07T04:12:44;4.30;91.30
10384;DHT22;5238;43.508;4.980;2022-12-07T04:15:12;4.40;91.30
10384;DHT22;5238;43.508;4.980;2022-12-07T04:17:40;4.40;91.30
10384;DHT22;5238;43.508;4.980;2022-12-07T04:20:10;4.40;91.30
10384;DHT22;5238;43.508;4.980;2022-12-07T04:22:37;4.40;91.30
10384;DHT22;5238;43.508;4.980;2022-12-07T04:25:05;4.40;91.30
10384;DHT22;5238;43.508;4.980;2022-12-07T04:27:32;4.40;91.30
10384;DHT22;5238;43.508;4.980;2022-12-07T04:30:00;4.40;91.30
10384;DHT22;5238;43.508;4.980;2022-12-07T04:32:27;4.40;91.30
10384;DHT22;5238;43.508;4.980;2022-12-07T04:34:55;4.50;91.30
10384;DHT22;5238;43.508;4.980;2022-12-07T04:37:24;4.50;91.30
10384;DHT22;5238;43.508;4.980;2022-12-07T04:40:00;4.50;91.30
10384;DHT22;5238;43.508;4.980;2022-12-07T04:42:26;4.50;91.30
10384;DHT22;5238;43.508;4.980;2022-12-07T04:44:53;4.60;91.30
10384;DHT22;5238;43.508;4.980;2022-12-07T04:47:20;4.60;91.30
10384;DHT22;5238;43.508;4.980;2022-12-07T04:49:48;4.60;91.30
10384;DHT22;5238;43.508;4.980;2022-12-07T04:52:15;4.60;91.30
10384;DHT22;5238;43.508;4.980;2022-12-07T04:54:43;4.60;91.30
10384;DHT22;5238;43.508;4.980;2022-12-07T04:57:10;4.60;91.30
10384;DHT22;5238;43.508;4.980;2022-12-07T04:59:37;4.70;91.30
10384;DHT22;5238;43.508;4.980;2022-12-07T05:02:04;4.70;91.30
10384;DHT22;5238;43.508;4.980;2022-12-07T05:04:31;4.70;91.30
10384;DHT22;5238;43.508;4.980;2022-12-07T05:06:58;4.70;91.30
10384;DHT22;5238;43.508;4.980;2022-12-07T05:09:25;4.70;91.30
10384;DHT22;5238;43.508;4.980;2022-12-07T05:11:53;4.70;91.30
10384;DHT22;5238;43.508;4.980;2022-12-07T05:14:21;4.80;91.30
10384;DHT22;5238;43.508;4.980;2022-12-07T05:16:49;4.80;91.30
10384;DHT22;5238;43.508;4.980;2022-12-07T05:19:17;4.80;91.30
10384;DHT22;5238;43.508;4.980;2022-12-07T05:21:44;4.80;91.30
10384;DHT22;5238;43.508;4.980;2022-12-07T05:24:13;4.90;91.30
10384;DHT22;5238;43.508;4.980;2022-12-07T05:26:40;4.90;91.30
10384;DHT22;5238;43.508;4.980;2022-12-07T05:29:11;4.90;91.30
10384;DHT22;5238;43.508;4.980;2022-12-07T05:31:38;4.90;91.30
10384;DHT22;5238;43.508;4.980;2022-12-07T05:34:05;4.90;91.30
10384;DHT22;5238;43.508;4.980;2022-12-07T05:36:32;5.00;91.30
10384;DHT22;5238;43.508;4.980;2022-12-07T05:38:59;5.00;91.30
10384;DHT22;5238;43.508;4.980;2022-12-07T05:41:26;5.00;91.30
10384;DHT22;5238;43.508;4.980;2022-12-07T05:44:12;5.00;91.30
10384;DHT22;5238;43.508;4.980;2022-12-07T05:46:39;5.00;91.30
10384;DHT22;5238;43.508;4.980;2022-12-07T05:49:06;5.00;91.30
10384;DHT22;5238;43.508;4.980;2022-12-07T05:51:33;5.00;91.30
10384;DHT22;5238;43.508;4.980;2022-12-07T05:54:00;5.00;91.30
10384;DHT22;5238;43.508;4.980;2022-12-07T05:56:28;5.00;91.30
10384;DHT22;5238;43.508;4.980;2022-12-07T05:58:55;5.00;91.30
10384;DHT22;5238;43.508;4.980;2022-12-07T06:01:41;5.10;91.30
10384;DHT22;5238;43.508;4.980;2022-12-07T06:04:09;5.10;91.30
10384;DHT22;5238;43.508;4.980;2022-12-07T06:06:36;5.10;91.30
10384;DHT22;5238;43.508;4.980;2022-12-07T06:09:03;5.10;91.30
10384;DHT22;5238;43.508;4.980;2022-12-07T06:11:31;5.10;91.30
10384;DHT22;5238;43.508;4.980;2022-12-07T06:14:15;5.10;91.30
10384;DHT22;5238;43.508;4.980;2022-12-07T06:16:43;5.10;91.30
10384;DHT22;5238;43.508;4.980;2022-12-07T06:19:10;5.10;91.30
10384;DHT22;5238;43.508;4.980;2022-12-07T06:21:38;5.20;91.30
10384;DHT22;5238;43.508;4.980;2022-12-07T06:24:05;5.20;91.30
10384;DHT22;5238;43.508;4.980;2022-12-07T06:26:33;5.20;91.30
10384;DHT22;5238;43.508;4.980;2022-12-07T06:29:00;5.20;91.30
10384;DHT22;5238;43.508;4.980;2022-12-07T06:31:28;5.20;91.30
10384;DHT22;5238;43.508;4.980;2022-12-07T06:33:59;5.20;91.30
10384;DHT22;5238;43.508;4.980;2022-12-07T06:36:26;5.20;91.30
10384;DHT22;5238;43.508;4.980;2022-12-07T06:38:54;5.20;91.30
10384;DHT22;5238;43.508;4.980;2022-12-07T06:41:21;5.20;91.30
10384;DHT22;5238;43.508;4.980;2022-12-07T06:43:48;5.20;91.30
10384;DHT22;5238;43.508;4.980;2022-12-07T06:46:18;5.10;91.30
10384;DHT22;5238;43.508;4.980;2022-12-07T06:48:45;5.10;91.30
10384;DHT22;5238;43.508;4.980;2022-12-07T06:51:13;5.20;91.30
10384;DHT22;5238;43.508;4.980;2022-12-07T06:53:40;5.20;91.30
10384;DHT22;5238;43.508;4.980;2022-12-07T06:56:08;5.20;91.30
10384;DHT22;5238;43.508;4.980;2022-12-07T06:58:35;5.20;91.30
10384;DHT22;5238;43.508;4.980;2022-12-07T07:01:02;5.20;91.30
10384;DHT22;5238;43.508;4.980;2022-12-07T07:03:29;5.20;91.30
10384;DHT22;5238;43.508;4.980;2022-12-07T07:05:56;5.20;91.30
10384;DHT22;5238;43.508;4.980;2022-12-07T07:08:24;5.20;91.30
10384;DHT22;5238;43.508;4.980;2022-12-07T07:10:51;5.20;91.30
10384;DHT22;5238;43.508;4.980;2022-12-07T07:13:18;5.20;91.30
10384;DHT22;5238;43.508;4.980;2022-12-07T07:15:45;5.20;91.30
10384;DHT22;5238;43.508;4.980;2022-12-07T07:18:12;5.20;91.30
10384;DHT22;5238;43.508;4.980;2022-12-07T07:20:39;5.20;91.30
10384;DHT22;5238;43.508;4.980;2022-12-07T07:23:06;5.30;91.30
10384;DHT22;5238;43.508;4.980;2022-12-07T07:25:35;5.30;91.30
10384;DHT22;5238;43.508;4.980;2022-12-07T07:28:02;5.30;91.30
10384;DHT22;5238;43.508;4.980;2022-12-07T07:30:29;5.30;91.30
10384;DHT22;5238;43.508;4.980;2022-12-07T07:32:57;5.40;91.30
10384;DHT22;5238;43.508;4.980;2022-12-07T07:35:24;5.50;91.30
10384;DHT22;5238;43.508;4.980;2022-12-07T07:37:51;5.60;91.30
10384;DHT22;5238;43.508;4.980;2022-12-07T07:40:18;5.80;91.30
10384;DHT22;5238;43.508;4.980;2022-12-07T07:42:48;5.90;91.30
10384;DHT22;5238;43.508;4.980;2022-12-07T07:45:16;6.00;91.30
10384;DHT22;5238;43.508;4.980;2022-12-07T07:47:43;6.10;91.30
10384;DHT22;5238;43.508;4.980;2022-12-07T07:50:10;6.20;91.30
10384;DHT22;5238;43.508;4.980;2022-12-07T07:52:37;6.30;91.30
10384;DHT22;5238;43.508;4.980;2022-12-07T07:55:05;6.40;91.30
10384;DHT22;5238;43.508;4.980;2022-12-07T07:57:34;6.50;91.30
10384;DHT22;5238;43.508;4.980;2022-12-07T08:00:04;6.60;91.30
10384;DHT22;5238;43.508;4.980;2022-12-07T08:02:31;6.60;91.30
10384;DHT22;5238;43.508;4.980;2022-12-07T08:04:58;6.70;91.30
10384;DHT22;5238;43.508;4.980;2022-12-07T08:07:26;6.70;91.30
10384;DHT22;5238;43.508;4.980;2022-12-07T08:09:54;6.80;91.30
10384;DHT22;5238;43.508;4.980;2022-12-07T08:12:21;6.80;91.30
10384;DHT22;5238;43.508;4.980;2022-12-07T08:14:48;6.90;91.30
10384;DHT22;5238;43.508;4.980;2022-12-07T08:17:16;6.90;91.30
10384;DHT22;5238;43.508;4.980;2022-12-07T08:19:44;7.00;91.30
10384;DHT22;5238;43.508;4.980;2022-12-07T08:22:11;7.10;91.30
10384;DHT22;5238;43.508;4.980;2022-12-07T08:24:38;7.20;91.30
10384;DHT22;5238;43.508;4.980;2022-12-07T08:27:05;7.30;91.30
10384;DHT22;5238;43.508;4.980;2022-12-07T08:29:32;7.40;91.30
10384;DHT22;5238;43.508;4.980;2022-12-07T08:31:59;7.60;91.30
10384;DHT22;5238;43.508;4.980;2022-12-07T08:34:28;7.70;91.30
10384;DHT22;5238;43.508;4.980;2022-12-07T08:36:55;7.90;91.30
10384;DHT22;5238;43.508;4.980;2022-12-07T08:39:22;8.00;91.30
10384;DHT22;5238;43.508;4.980;2022-12-07T08:41:49;8.20;91.30
10384;DHT22;5238;43.508;4.980;2022-12-07T08:44:16;8.40;91.30
10384;DHT22;5238;43.508;4.980;2022-12-07T08:46:47;8.70;91.30
10384;DHT22;5238;43.508;4.980;2022-12-07T08:49:19;8.90;91.30
10384;DHT22;5238;43.508;4.980;2022-12-07T08:51:48;9.10;91.30
10384;DHT22;5238;43.508;4.980;2022-12-07T08:54:18;9.20;91.30
10384;DHT22;5238;43.508;4.980;2022-12-07T08:56:46;9.40;91.30
10384;DHT22;5238;43.508;4.980;2022-12-07T08:59:16;9.60;91.30
10384;DHT22;5238;43.508;4.980;2022-12-07T09:01:44;9.70;91.30
10384;DHT22;5238;43.508;4.980;2022-12-07T09:04:11;9.90;91.30
10384;DHT22;5238;43.508;4.980;2022-12-07T09:06:38;10.10;91.30
10384;DHT22;5238;43.508;4.980;2022-12-07T09:09:10;10.20;91.30
10384;DHT22;5238;43.508;4.980;2022-12-07T09:11:37;10.40;91.30
10384;DHT22;5238;43.508;4.980;2022-12-07T09:14:05;10.50;91.30
10384;DHT22;5238;43.508;4.980;2022-12-07T09:16:32;10.60;91.30
10384;DHT22;5238;43.508;4.980;2022-12-07T09:18:59;10.70;91.30
10384;DHT22;5238;43.508;4.980;2022-12-07T09:21:26;10.80;91.30
10384;DHT22;5238;43.508;4.980;2022-12-07T09:23:53;11.00;91.30
10384;DHT22;5238;43.508;4.980;2022-12-07T09:26:21;11.00;91.30
10384;DHT22;5238;43.508;4.980;2022-12-07T09:28:48;11.10;91.30
10384;DHT22;5238;43.508;4.980;2022-12-07T09:31:15;11.30;91.30
10384;DHT22;5238;43.508;4.980;2022-12-07T09:33:42;11.40;91.30
10384;DHT22;5238;43.508;4.980;2022-12-07T09:36:10;11.40;91.30
10384;DHT22;5238;43.508;4.980;2022-12-07T09:38:37;11.50;91.30
10384;DHT22;5238;43.508;4.980;2022-12-07T09:41:05;11.60;91.30
10384;DHT22;5238;43.508;4.980;2022-12-07T09:43:36;11.60;91.30
10384;DHT22;5238;43.508;4.980;2022-12-07T09:46:06;11.70;91.30
10384;DHT22;5238;43.508;4.980;2022-12-07T09:48:36;11.70;91.30
10384;DHT22;5238;43.508;4.980;2022-12-07T09:51:13;11.80;91.30
10384;DHT22;5238;43.508;4.980;2022-12-07T09:53:42;11.80;91.30
10384;DHT22;5238;43.508;4.980;2022-12-07T09:56:12;11.80;91.30
10384;DHT22;5238;43.508;4.980;2022-12-07T09:58:42;11.90;91.30
10384;DHT22;5238;43.508;4.980;2022-12-07T10:01:12;12.00;91.30
10384;DHT22;5238;43.508;4.980;2022-12-07T10:03:42;12.00;91.30
10384;DHT22;5238;43.508;4.980;2022-12-07T10:06:12;12.00;91.30
10384;DHT22;5238;43.508;4.980;2022-12-07T10:08:41;12.00;91.30
10384;DHT22;5238;43.508;4.980;2022-12-07T10:11:10;12.00;91.30
10384;DHT22;5238;43.508;4.980;2022-12-07T10:13:43;12.00;91.30
10384;DHT22;5238;43.508;4.980;2022-12-07T10:16:37;12.00;91.30
10384;DHT22;5238;43.508;4.980;2022-12-07T10:19:20;12.00;91.30
10384;DHT22;5238;43.508;4.980;2022-12-07T10:22:04;12.00;91.30
10384;DHT22;5238;43.508;4.980;2022-12-07T10:24:32;12.00;91.30
10384;DHT22;5238;43.508;4.980;2022-12-07T10:26:59;11.90;91.30
10384;DHT22;5238;43.508;4.980;2022-12-07T10:29:30;11.90;91.30
10384;DHT22;5238;43.508;4.980;2022-12-07T10:31:59;12.00;91.30
10384;DHT22;5238;43.508;4.980;2022-12-07T10:34:28;12.00;91.30
10384;DHT22;5238;43.508;4.980;2022-12-07T10:37:14;11.90;91.30
10384;DHT22;5238;43.508;4.980;2022-12-07T10:39:43;11.90;91.30
10384;DHT22;5238;43.508;4.980;2022-12-07T10:42:17;11.80;91.30
10384;DHT22;5238;43.508;4.980;2022-12-07T10:44:46;11.70;91.30
10384;DHT22;5238;43.508;4.980;2022-12-07T10:47:32;11.70;91.30
10384;DHT22;5238;43.508;4.980;2022-12-07T10:50:26;11.60;91.30
10384;DHT22;5238;43.508;4.980;2022-12-07T10:53:15;11.50;91.30
10384;DHT22;5238;43.508;4.980;2022-12-07T10:56:01;11.40;91.30
10384;DHT22;5238;43.508;4.980;2022-12-07T10:58:42;11.30;91.30
10384;DHT22;5238;43.508;4.980;2022-12-07T11:01:20;11.30;91.30
10384;DHT22;5238;43.508;4.980;2022-12-07T11:04:13;11.20;91.30
10384;DHT22;5238;43.508;4.980;2022-12-07T11:06:47;11.20;91.30
10384;DHT22;5238;43.508;4.980;2022-12-07T11:09:42;11.10;91.30
10384;DHT22;5238;43.508;4.980;2022-12-07T11:12:17;11.00;91.30
10384;DHT22;5238;43.508;4.980;2022-12-07T11:14:52;10.90;91.30
10384;DHT22;5238;43.508;4.980;2022-12-07T11:17:29;10.90;91.30
10384;DHT22;5238;43.508;4.980;2022-12-07T11:20:05;10.80;91.30
10384;DHT22;5238;43.508;4.980;2022-12-07T11:22:44;10.70;91.30
10384;DHT22;5238;43.508;4.980;2022-12-07T11:25:20;10.70;91.30
10384;DHT22;5238;43.508;4.980;2022-12-07T11:28:02;10.60;91.30
10384;DHT22;5238;43.508;4.980;2022-12-07T11:30:35;10.60;91.30
10384;DHT22;5238;43.508;4.980;2022-12-07T11:33:27;10.60;91.30
10384;DHT22;5238;43.508;4.980;2022-12-07T11:36:02;10.50;91.30
10384;DHT22;5238;43.508;4.980;2022-12-07T11:38:43;10.50;91.30
10384;DHT22;5238;43.508;4.980;2022-12-07T11:41:11;10.40;91.30
10384;DHT22;5238;43.508;4.980;2022-12-07T11:43:56;10.40;91.30
10384;DHT22;5238;43.508;4.980;2022-12-07T11:46:27;10.40;91.30
10384;DHT22;5238;43.508;4.980;2022-12-07T11:49:02;10.40;91.30
10384;DHT22;5238;43.508;4.980;2022-12-07T11:51:34;10.30;91.30
10384;DHT22;5238;43.508;4.980;2022-12-07T11:54:05;10.40;91.30
10384;DHT22;5238;43.508;4.980;2022-12-07T11:56:37;10.40;91.30
10384;DHT22;5238;43.508;4.980;2022-12-07T11:59:09;10.30;91.30
10384;DHT22;5238;43.508;4.980;2022-12-07T12:01:47;10.30;91.30
10384;DHT22;5238;43.508;4.980;2022-12-07T12:04:35;10.30;91.30
10384;DHT22;5238;43.508;4.980;2022-12-07T12:07:06;10.30;91.30
10384;DHT22;5238;43.508;4.980;2022-12-07T12:09:36;10.30;91.30
10384;DHT22;5238;43.508;4.980;2022-12-07T12:12:37;10.30;91.30
10384;DHT22;5238;43.508;4.980;2022-12-07T12:15:18;10.30;91.30
10384;DHT22;5238;43.508;4.980;2022-12-07T12:18:05;10.30;91.30
10384;DHT22;5238;43.508;4.980;2022-12-07T12:20:40;10.30;91.30
10384;DHT22;5238;43.508;4.980;2022-12-07T12:23:11;10.40;91.30
10384;DHT22;5238;43.508;4.980;2022-12-07T12:25:42;10.40;91.30
10384;DHT22;5238;43.508;4.980;2022-12-07T12:28:22;10.30;91.30
10384;DHT22;5238;43.508;4.980;2022-12-07T12:31:05;10.30;91.30
10384;DHT22;5238;43.508;4.980;2022-12-07T12:33:33;10.40;91.30
10384;DHT22;5238;43.508;4.980;2022-12-07T12:36:25;10.40;91.30
10384;DHT22;5238;43.508;4.980;2022-12-07T12:39:11;10.30;91.30
10384;DHT22;5238;43.508;4.980;2022-12-07T12:41:57;10.40;91.30
10384;DHT22;5238;43.508;4.980;2022-12-07T12:45:18;10.40;91.30
10384;DHT22;5238;43.508;4.980;2022-12-07T12:47:57;10.30;91.30
10384;DHT22;5238;43.508;4.980;2022-12-07T12:50:27;10.30;91.30
10384;DHT22;5238;43.508;4.980;2022-12-07T12:53:15;10.40;91.30
10384;DHT22;5238;43.508;4.980;2022-12-07T12:58:46;10.40;91.30
10384;DHT22;5238;43.508;4.980;2022-12-07T13:01:44;10.40;91.30
10384;DHT22;5238;43.508;4.980;2022-12-07T13:04:48;10.40;91.30
10384;DHT22;5238;43.508;4.980;2022-12-07T13:10:36;10.40;91.30
10384;DHT22;5238;43.508;4.980;2022-12-07T13:13:05;10.40;91.30
10384;DHT22;5238;43.508;4.980;2022-12-07T13:15:53;10.40;91.30
10384;DHT22;5238;43.508;4.980;2022-12-07T13:18:25;10.40;91.30
10384;DHT22;5238;43.508;4.980;2022-12-07T13:21:02;10.40;91.30
10384;DHT22;5238;43.508;4.980;2022-12-07T13:23:31;10.30;91.30
10384;DHT22;5238;43.508;4.980;2022-12-07T13:26:22;10.30;91.30
10384;DHT22;5238;43.508;4.980;2022-12-07T13:28:51;10.30;91.30
10384;DHT22;5238;43.508;4.980;2022-12-07T13:31:29;10.30;91.30
10384;DHT22;5238;43.508;4.980;2022-12-07T13:33:58;10.20;91.30
10384;DHT22;5238;43.508;4.980;2022-12-07T13:36:27;10.20;91.30
10384;DHT22;5238;43.508;4.980;2022-12-07T13:38:58;10.20;91.30
10384;DHT22;5238;43.508;4.980;2022-12-07T13:41:28;10.20;91.30
10384;DHT22;5238;43.508;4.980;2022-12-07T13:44:01;10.20;91.30
10384;DHT22;5238;43.508;4.980;2022-12-07T13:46:48;10.20;91.30
10384;DHT22;5238;43.508;4.980;2022-12-07T13:49:19;10.20;91.30
10384;DHT22;5238;43.508;4.980;2022-12-07T13:51:47;10.20;91.30
10384;DHT22;5238;43.508;4.980;2022-12-07T13:54:14;10.20;91.30
10384;DHT22;5238;43.508;4.980;2022-12-07T13:56:43;10.10;91.30
10384;DHT22;5238;43.508;4.980;2022-12-07T13:59:16;10.10;91.30
10384;DHT22;5238;43.508;4.980;2022-12-07T14:01:46;10.10;91.30
10384;DHT22;5238;43.508;4.980;2022-12-07T14:04:31;10.10;91.30
10384;DHT22;5238;43.508;4.980;2022-12-07T14:06:59;10.00;91.30
10384;DHT22;5238;43.508;4.980;2022-12-07T14:09:29;10.00;91.30
10384;DHT22;5238;43.508;4.980;2022-12-07T14:11:58;10.00;91.30
10384;DHT22;5238;43.508;4.980;2022-12-07T14:14:28;10.00;91.30
10384;DHT22;5238;43.508;4.980;2022-12-07T14:17:01;10.00;91.30
10384;DHT22;5238;43.508;4.980;2022-12-07T14:19:45;9.90;91.30
10384;DHT22;5238;43.508;4.980;2022-12-07T14:22:30;9.90;91.30
10384;DHT22;5238;43.508;4.980;2022-12-07T14:25:18;9.90;91.30
10384;DHT22;5238;43.508;4.980;2022-12-07T14:27:55;9.90;91.30
10384;DHT22;5238;43.508;4.980;2022-12-07T14:30:25;9.80;91.30
10384;DHT22;5238;43.508;4.980;2022-12-07T14:32:55;9.80;91.30
10384;DHT22;5238;43.508;4.980;2022-12-07T14:35:23;9.80;91.30
10384;DHT22;5238;43.508;4.980;2022-12-07T14:37:51;9.80;91.30
10384;DHT22;5238;43.508;4.980;2022-12-07T14:40:21;9.70;91.30
10384;DHT22;5238;43.508;4.980;2022-12-07T14:42:53;9.70;91.30
10384;DHT22;5238;43.508;4.980;2022-12-07T14:45:22;9.70;91.30
10384;DHT22;5238;43.508;4.980;2022-12-07T14:47:50;9.60;91.30
10384;DHT22;5238;43.508;4.980;2022-12-07T14:50:19;9.60;91.30
10384;DHT22;5238;43.508;4.980;2022-12-07T14:52:49;9.60;91.30
10384;DHT22;5238;43.508;4.980;2022-12-07T14:55:23;9.50;91.30
10384;DHT22;5238;43.508;4.980;2022-12-07T14:57:51;9.50;91.30
10384;DHT22;5238;43.508;4.980;2022-12-07T15:00:21;9.50;91.30
10384;DHT22;5238;43.508;4.980;2022-12-07T15:02:49;9.40;91.30
10384;DHT22;5238;43.508;4.980;2022-12-07T15:05:16;9.40;91.30
10384;DHT22;5238;43.508;4.980;2022-12-07T15:07:43;9.40;91.30
10384;DHT22;5238;43.508;4.980;2022-12-07T15:10:16;9.40;91.30
10384;DHT22;5238;43.508;4.980;2022-12-07T15:12:43;9.30;91.30
10384;DHT22;5238;43.508;4.980;2022-12-07T15:15:12;9.30;91.30
10384;DHT22;5238;43.508;4.980;2022-12-07T15:17:40;9.20;91.30
10384;DHT22;5238;43.508;4.980;2022-12-07T15:20:11;9.20;91.30
10384;DHT22;5238;43.508;4.980;2022-12-07T15:22:38;9.10;91.30
10384;DHT22;5238;43.508;4.980;2022-12-07T15:25:07;9.00;91.30
10384;DHT22;5238;43.508;4.980;2022-12-07T15:27:34;8.90;91.30
10384;DHT22;5238;43.508;4.980;2022-12-07T15:30:01;8.90;91.30
10384;DHT22;5238;43.508;4.980;2022-12-07T15:32:28;8.90;91.30
10384;DHT22;5238;43.508;4.980;2022-12-07T15:34:57;8.80;91.30
10384;DHT22;5238;43.508;4.980;2022-12-07T15:37:24;8.80;91.30
10384;DHT22;5238;43.508;4.980;2022-12-07T15:39:51;8.70;91.30
10384;DHT22;5238;43.508;4.980;2022-12-07T15:42:18;8.70;91.30
10384;DHT22;5238;43.508;4.980;2022-12-07T15:44:45;8.60;91.30
10384;DHT22;5238;43.508;4.980;2022-12-07T15:47:30;8.50;91.30
10384;DHT22;5238;43.508;4.980;2022-12-07T15:49:59;8.50;91.30
10384;DHT22;5238;43.508;4.980;2022-12-07T15:52:26;8.50;91.30
10384;DHT22;5238;43.508;4.980;2022-12-07T15:54:54;8.40;91.30
10384;DHT22;5238;43.508;4.980;2022-12-07T15:57:21;8.40;91.30
10384;DHT22;5238;43.508;4.980;2022-12-07T15:59:48;8.30;91.30
10384;DHT22;5238;43.508;4.980;2022-12-07T16:02:15;8.30;91.30
10384;DHT22;5238;43.508;4.980;2022-12-07T16:04:42;8.20;91.30
10384;DHT22;5238;43.508;4.980;2022-12-07T16:07:12;8.20;91.30
10384;DHT22;5238;43.508;4.980;2022-12-07T16:09:41;8.10;91.30
10384;DHT22;5238;43.508;4.980;2022-12-07T16:12:09;8.00;91.30
10384;DHT22;5238;43.508;4.980;2022-12-07T16:14:36;8.00;91.30
10384;DHT22;5238;43.508;4.980;2022-12-07T16:17:04;7.90;91.30
10384;DHT22;5238;43.508;4.980;2022-12-07T16:19:31;7.90;91.30
10384;DHT22;5238;43.508;4.980;2022-12-07T16:21:59;7.80;91.30
10384;DHT22;5238;43.508;4.980;2022-12-07T16:24:27;7.70;91.30
10384;DHT22;5238;43.508;4.980;2022-12-07T16:26:55;7.70;91.30
10384;DHT22;5238;43.508;4.980;2022-12-07T16:29:23;7.60;91.30